createdAt,value
2022-12-29T00:03:03.896Z,75.69
2022-12-29T00:06:08.982Z,74.89
2022-12-29T00:09:15.333Z,75.17
2022-12-29T00:12:20.141Z,74.41
2022-12-29T00:15:40.046Z,74.91
2022-12-29T00:18:44.896Z,75.53
2022-12-29T00:22:02.065Z,75.52
2022-12-29T00:25:19.881Z,76.24
2022-12-29T00:28:37.072Z,75.52
2022-12-29T00:31:56.911Z,75.43
2022-12-29T00:35:13.512Z,75.28
2022-12-29T00:38:31.499Z,75.49
2022-12-29T00:41:48.740Z,77.45
2022-12-29T00:44:53.461Z,77.68
2022-12-29T00:48:00.839Z,77.05
2022-12-29T00:51:03.007Z,76.95
2022-12-29T00:54:07.799Z,78.18
2022-12-29T00:57:13.876Z,77.57
2022-12-29T01:00:18.931Z,77.01
2022-12-29T01:03:26.282Z,77.05
2022-12-29T01:06:31.214Z,76.46
2022-12-29T01:09:48.762Z,77.30
2022-12-29T01:12:53.521Z,77.18
2022-12-29T01:15:59.052Z,77.88
2022-12-29T01:19:06.540Z,77.14
2022-12-29T01:22:12.010Z,76.66
2022-12-29T01:25:16.739Z,76.51
2022-12-29T01:28:26.201Z,77.28
2022-12-29T01:31:31.354Z,77.14
2022-12-29T01:34:38.735Z,76.84
2022-12-29T01:37:43.465Z,76.90
2022-12-29T01:40:48.926Z,77.06
2022-12-29T01:43:56.231Z,77.77
2022-12-29T01:47:01.053Z,77.55
2022-12-29T01:50:12.742Z,77.45
2022-12-29T01:53:21.818Z,76.86
2022-12-29T01:56:27.340Z,77.22
2022-12-29T01:59:36.699Z,76.40
2022-12-29T02:02:42.024Z,73.11
2022-12-29T02:05:55.491Z,73.16
2022-12-29T02:09:01.455Z,73.82
2022-12-29T02:12:06.626Z,72.64
2022-12-29T02:15:13.247Z,72.95
2022-12-29T02:18:31.635Z,74.40
2022-12-29T02:21:57.354Z,74.52
2022-12-29T02:25:34.509Z,75.55
2022-12-29T02:29:08.113Z,76.30
2022-12-29T02:32:23.372Z,78.00
2022-12-29T02:35:37.669Z,79.84
2022-12-29T02:38:59.202Z,81.58
2022-12-29T02:42:12.956Z,83.08
2022-12-29T02:45:25.410Z,86.98
2022-12-29T02:48:39.113Z,87.28
2022-12-29T02:51:50.833Z,88.04
2022-12-29T02:54:57.987Z,88.76
2022-12-29T02:58:21.962Z,90.34
2022-12-29T03:02:01.790Z,92.59
2022-12-29T03:05:24.031Z,92.10
2022-12-29T03:08:39.701Z,94.56
2022-12-29T03:12:08.112Z,95.22
2022-12-29T03:15:31.559Z,97.41
2022-12-29T03:18:45.828Z,96.98
2022-12-29T03:22:11.756Z,95.97
2022-12-29T03:25:22.452Z,97.34
2022-12-29T03:28:32.329Z,95.53
2022-12-29T03:31:38.124Z,96.23
2022-12-29T03:34:43.525Z,96.15
2022-12-29T03:37:55.517Z,94.67
2022-12-29T03:41:04.244Z,94.28
2022-12-29T03:44:09.925Z,95.58
2022-12-29T03:47:15.644Z,96.59
2022-12-29T03:50:20.373Z,96.59
2022-12-29T03:53:27.735Z,94.92
2022-12-29T03:56:32.510Z,94.18
2022-12-29T03:59:37.440Z,94.39
2022-12-29T04:02:42.440Z,94.28
2022-12-29T04:05:47.356Z,93.39
2022-12-29T04:08:54.691Z,92.47
2022-12-29T04:11:59.484Z,91.93
2022-12-29T04:15:04.495Z,92.64
2022-12-29T04:18:09.350Z,91.56
2022-12-29T04:21:14.199Z,89.82
2022-12-29T04:24:21.929Z,89.33
2022-12-29T04:27:26.980Z,90.97
2022-12-29T04:30:32.072Z,90.20
2022-12-29T04:33:36.947Z,89.49
2022-12-29T04:36:41.944Z,91.10
2022-12-29T04:39:49.308Z,90.03
2022-12-29T04:42:54.129Z,90.36
2022-12-29T04:45:59.078Z,89.39
2022-12-29T04:49:09.747Z,89.95
2022-12-29T04:52:14.679Z,89.41
2022-12-29T04:55:22.503Z,89.82
2022-12-29T04:58:27.322Z,90.63
2022-12-29T05:01:32.157Z,88.88
2022-12-29T05:04:37.087Z,89.51
2022-12-29T05:07:42.158Z,88.86
2022-12-29T05:10:51.157Z,87.88
2022-12-29T05:13:55.928Z,87.24
2022-12-29T05:17:00.700Z,88.72
2022-12-29T05:20:06.924Z,86.31
2022-12-29T05:23:12.402Z,87.92
2022-12-29T05:26:19.789Z,86.78
2022-12-29T05:29:24.566Z,85.12
2022-12-29T05:32:29.706Z,85.40
2022-12-29T05:35:35.518Z,84.01
2022-12-29T05:38:40.347Z,84.40
2022-12-29T05:41:47.758Z,83.19
2022-12-29T05:44:55.025Z,84.64
2022-12-29T05:47:59.876Z,82.18
2022-12-29T05:51:04.646Z,81.39
2022-12-29T05:54:09.740Z,81.86
2022-12-29T05:57:17.041Z,82.48
2022-12-29T06:00:22.206Z,80.79
2022-12-29T06:03:27.360Z,81.38
2022-12-29T06:06:32.357Z,79.89
2022-12-29T06:09:37.115Z,80.33
2022-12-29T06:12:44.545Z,79.54
2022-12-29T06:15:52.033Z,79.96
2022-12-29T06:18:56.924Z,80.21
2022-12-29T06:22:01.646Z,80.04
2022-12-29T06:25:06.938Z,80.14
2022-12-29T06:28:14.546Z,79.46
2022-12-29T06:31:19.357Z,79.22
2022-12-29T06:34:24.068Z,78.80
2022-12-29T06:37:29.043Z,78.60
2022-12-29T06:40:33.937Z,78.24
2022-12-29T06:43:41.806Z,77.74
2022-12-29T06:46:46.586Z,77.15
2022-12-29T06:49:51.407Z,76.89
2022-12-29T06:52:56.218Z,75.07
2022-12-29T06:56:01.395Z,75.79
2022-12-29T06:59:08.753Z,76.33
2022-12-29T07:02:15.663Z,76.01
2022-12-29T07:05:20.864Z,74.69
2022-12-29T07:08:25.610Z,73.32
2022-12-29T07:11:30.377Z,75.38
2022-12-29T07:14:42.854Z,74.59
2022-12-29T07:17:48.275Z,73.64
2022-12-29T07:20:53.075Z,74.36
2022-12-29T07:23:58.359Z,74.61
2022-12-29T07:27:03.096Z,73.35
2022-12-29T07:30:11.925Z,73.59
2022-12-29T07:33:16.697Z,73.78
2022-12-29T07:36:22.421Z,74.99
2022-12-29T07:39:27.242Z,74.26
2022-12-29T07:42:32.682Z,74.38
2022-12-29T07:45:40.266Z,73.63
2022-12-29T07:48:45.028Z,74.18
2022-12-29T07:51:49.842Z,75.06
2022-12-29T07:54:54.599Z,74.91
2022-12-29T07:58:00.356Z,74.01
2022-12-29T08:01:08.083Z,74.32
2022-12-29T08:04:13.275Z,73.84
2022-12-29T08:07:18.272Z,72.93
2022-12-29T08:10:23.291Z,72.42
2022-12-29T08:13:28.848Z,73.55
2022-12-29T08:16:36.403Z,73.78
2022-12-29T08:19:43.701Z,73.82
2022-12-29T08:22:48.450Z,72.95
2022-12-29T08:26:01.785Z,73.90
2022-12-29T08:29:06.589Z,73.45
2022-12-29T08:32:14.363Z,73.87
2022-12-29T08:35:19.216Z,73.48
2022-12-29T08:38:23.949Z,73.88
2022-12-29T08:41:28.691Z,73.38
2022-12-29T08:44:33.466Z,73.87
2022-12-29T08:47:44.025Z,71.42
2022-12-29T08:50:49.446Z,71.61
2022-12-29T08:53:54.618Z,71.19
2022-12-29T08:56:59.450Z,69.94
2022-12-29T09:00:04.457Z,69.60
2022-12-29T09:03:12.040Z,69.63
2022-12-29T09:06:17.940Z,67.64
2022-12-29T09:09:22.773Z,69.05
2022-12-29T09:12:32.961Z,68.17
2022-12-29T09:15:41.024Z,68.29
2022-12-29T09:18:49.075Z,66.47
2022-12-29T09:21:53.857Z,66.38
2022-12-29T09:24:58.591Z,64.65
2022-12-29T09:28:07.094Z,65.60
2022-12-29T09:31:11.841Z,64.62
2022-12-29T09:34:19.396Z,63.41
2022-12-29T09:37:24.142Z,63.17
2022-12-29T09:40:33.819Z,63.45
2022-12-29T09:43:57.828Z,62.79
2022-12-29T09:47:04.374Z,64.04
2022-12-29T09:50:22.681Z,63.08
2022-12-29T09:53:32.902Z,63.34
2022-12-29T09:56:37.696Z,63.58
2022-12-29T09:59:45.451Z,63.52
2022-12-29T10:02:54.809Z,63.13
2022-12-29T10:06:13.489Z,62.78
2022-12-29T10:09:28.498Z,62.36
2022-12-29T10:12:37.338Z,62.46
2022-12-29T10:15:57.891Z,61.86
2022-12-29T10:19:28.292Z,61.75
2022-12-29T10:22:54.961Z,61.49
2022-12-29T10:26:01.206Z,59.75
2022-12-29T10:29:08.828Z,60.27
2022-12-29T10:32:27.910Z,58.70
2022-12-29T10:35:40.218Z,57.72
2022-12-29T10:38:55.470Z,58.99
2022-12-29T10:42:08.697Z,59.33
2022-12-29T10:45:17.391Z,59.45
2022-12-29T10:48:31.520Z,59.16
2022-12-29T10:51:42.400Z,58.81
2022-12-29T10:54:55.178Z,58.02
2022-12-29T10:58:05.869Z,60.16
2022-12-29T11:01:15.601Z,60.09
2022-12-29T11:04:35.004Z,60.37
2022-12-29T11:07:40.653Z,58.97
2022-12-29T11:10:49.467Z,58.62
2022-12-29T11:14:00.418Z,60.74
2022-12-29T11:17:08.012Z,63.20
2022-12-29T11:20:31.346Z,61.51
2022-12-29T11:23:39.287Z,60.52
2022-12-29T11:26:48.142Z,61.98
2022-12-29T11:29:54.319Z,62.00
2022-12-29T11:32:59.859Z,61.99
2022-12-29T11:36:08.832Z,60.65
2022-12-29T11:39:29.847Z,62.81
2022-12-29T11:42:41.135Z,64.83
2022-12-29T11:45:50.742Z,65.21
2022-12-29T11:48:59.427Z,64.54
2022-12-29T11:52:04.560Z,62.47
2022-12-29T11:55:23.079Z,62.00
2022-12-29T11:58:36.230Z,61.57
2022-12-29T12:01:43.037Z,61.33
2022-12-29T12:04:48.366Z,56.86
2022-12-29T12:07:58.821Z,58.53
2022-12-29T12:11:10.830Z,55.38
2022-12-29T12:14:24.223Z,53.64
2022-12-29T12:17:38.603Z,49.30
2022-12-29T12:20:49.931Z,50.76
2022-12-29T12:24:16.323Z,52.31
2022-12-29T12:27:28.222Z,47.83
2022-12-29T12:30:42.947Z,50.17
2022-12-29T12:33:52.046Z,49.67
2022-12-29T12:37:12.518Z,54.03
2022-12-29T12:40:39.394Z,50.94
2022-12-29T12:43:49.351Z,51.96
2022-12-29T12:47:21.078Z,52.81
2022-12-29T12:50:39.479Z,56.69
2022-12-29T12:53:54.287Z,56.26
2022-12-29T12:57:09.066Z,53.44
2022-12-29T13:00:19.251Z,53.79
2022-12-29T13:03:48.889Z,52.30
2022-12-29T13:07:02.272Z,54.76
2022-12-29T13:10:23.064Z,57.77
2022-12-29T13:13:59.909Z,57.44
2022-12-29T13:17:12.283Z,59.52
2022-12-29T13:20:29.486Z,60.50
2022-12-29T13:23:41.873Z,62.10
2022-12-29T13:26:51.994Z,63.05
2022-12-29T13:30:05.342Z,64.00
2022-12-29T13:33:22.022Z,64.61
2022-12-29T13:36:34.188Z,65.42
2022-12-29T13:39:43.015Z,65.54
2022-12-29T13:42:49.852Z,65.43
2022-12-29T13:46:02.628Z,64.93
2022-12-29T13:49:12.423Z,60.37
2022-12-29T13:52:25.587Z,61.01
2022-12-29T13:55:35.741Z,63.00
2022-12-29T13:58:48.547Z,62.22
2022-12-29T14:02:01.159Z,62.65
2022-12-29T14:05:09.665Z,62.32
2022-12-29T14:08:22.055Z,62.58
2022-12-29T14:11:33.232Z,62.98
2022-12-29T14:14:41.713Z,62.74
2022-12-29T14:17:47.661Z,62.71
2022-12-29T14:20:58.027Z,61.64
2022-12-29T14:24:41.634Z,63.90
2022-12-29T14:27:57.391Z,64.51
2022-12-29T14:31:03.423Z,65.00
2022-12-29T14:34:43.675Z,65.26
2022-12-29T14:37:50.440Z,65.63
2022-12-29T14:41:31.668Z,66.08
2022-12-29T14:44:37.797Z,65.97
2022-12-29T14:47:45.215Z,66.16
2022-12-29T14:50:50.228Z,66.51
2022-12-29T14:53:55.441Z,66.91
2022-12-29T14:57:06.497Z,66.96
2022-12-29T15:00:23.980Z,67.17
2022-12-29T15:03:33.970Z,68.01
2022-12-29T15:06:42.926Z,71.15
2022-12-29T15:09:52.122Z,75.38
2022-12-29T15:12:59.719Z,78.15
2022-12-29T15:16:05.086Z,82.32
2022-12-29T15:19:25.506Z,88.74
2022-12-29T15:22:31.368Z,89.86
2022-12-29T15:25:37.203Z,92.76
2022-12-29T15:28:46.480Z,95.56
2022-12-29T15:31:52.271Z,95.11
2022-12-29T15:34:59.441Z,98.88
2022-12-29T15:38:17.139Z,97.78
2022-12-29T15:41:30.433Z,95.21
2022-12-29T15:44:43.034Z,97.29
2022-12-29T15:47:50.502Z,99.88
2022-12-29T15:50:55.971Z,99.25
2022-12-29T15:54:01.741Z,100.00
2022-12-29T15:57:07.153Z,100.00
2022-12-29T16:00:27.346Z,100.00
2022-12-29T16:03:36.151Z,100.00
2022-12-29T16:06:47.752Z,100.00
2022-12-29T16:09:58.671Z,100.00
2022-12-29T16:13:21.510Z,100.00
2022-12-29T16:16:32.868Z,100.00
2022-12-29T16:19:39.941Z,100.00
2022-12-29T16:22:51.942Z,100.00
2022-12-29T16:25:59.040Z,100.00
2022-12-29T16:29:08.873Z,100.00
2022-12-29T16:32:29.737Z,100.00
2022-12-29T16:35:43.733Z,99.36
2022-12-29T16:38:48.530Z,100.00
2022-12-29T16:41:54.434Z,100.00
2022-12-29T16:45:35.937Z,100.00
2022-12-29T16:48:53.238Z,100.00
2022-12-29T16:51:59.560Z,100.00
2022-12-29T16:55:05.320Z,99.57
2022-12-29T16:58:20.399Z,100.00
2022-12-29T17:01:26.030Z,100.00
2022-12-29T17:04:33.942Z,99.83
2022-12-29T17:07:44.327Z,99.39
2022-12-29T17:11:01.599Z,99.37
2022-12-29T17:14:06.814Z,98.33
2022-12-29T17:17:21.573Z,98.00
2022-12-29T17:20:31.032Z,99.44
2022-12-29T17:23:37.099Z,96.98
2022-12-29T17:26:41.903Z,97.58
2022-12-29T17:29:46.646Z,97.33
2022-12-29T17:32:55.230Z,97.86
2022-12-29T17:36:02.940Z,98.22
2022-12-29T17:39:08.699Z,97.19
2022-12-29T17:42:15.010Z,97.62
2022-12-29T17:45:21.788Z,98.60
2022-12-29T17:48:26.924Z,97.90
2022-12-29T17:51:34.906Z,98.75
2022-12-29T17:54:39.735Z,98.96
2022-12-29T17:57:44.546Z,98.46
2022-12-29T18:00:50.283Z,98.62
2022-12-29T18:03:55.258Z,96.85
2022-12-29T18:07:02.649Z,96.48
2022-12-29T18:10:08.239Z,96.79
2022-12-29T18:13:23.108Z,95.42
2022-12-29T18:16:28.366Z,97.04
2022-12-29T18:19:36.043Z,96.12
2022-12-29T18:22:43.846Z,96.36
2022-12-29T18:25:52.970Z,97.55
2022-12-29T18:28:58.695Z,97.75
2022-12-29T18:32:03.528Z,95.76
2022-12-29T18:35:16.883Z,94.87
2022-12-29T18:38:24.362Z,95.92
2022-12-29T18:41:31.269Z,95.70
2022-12-29T18:44:36.514Z,95.52
2022-12-29T18:47:41.266Z,95.39
2022-12-29T18:50:46.437Z,94.65
2022-12-29T18:53:54.840Z,94.81
2022-12-29T18:57:00.032Z,95.15
2022-12-29T19:00:05.289Z,94.48
2022-12-29T19:03:10.423Z,92.62
2022-12-29T19:06:15.241Z,92.09
2022-12-29T19:09:22.831Z,93.06
2022-12-29T19:12:28.638Z,93.64
2022-12-29T19:15:35.921Z,94.82
2022-12-29T19:18:44.140Z,97.22
2022-12-29T19:21:54.617Z,97.12
2022-12-29T19:25:02.880Z,97.86
2022-12-29T19:28:08.923Z,99.22
2022-12-29T19:31:13.642Z,100.00
2022-12-29T19:34:19.111Z,100.00
2022-12-29T19:37:23.882Z,100.00
2022-12-29T19:40:33.182Z,100.00
2022-12-29T19:43:38.009Z,100.00
2022-12-29T19:46:42.777Z,100.00
2022-12-29T19:49:47.610Z,99.74
2022-12-29T19:52:57.285Z,97.66
2022-12-29T19:56:11.209Z,97.67
2022-12-29T19:59:16.157Z,96.91
2022-12-29T20:02:23.003Z,97.55
2022-12-29T20:05:27.827Z,96.52
2022-12-29T20:08:32.528Z,97.39
2022-12-29T20:11:40.055Z,95.57
2022-12-29T20:14:46.015Z,95.23
2022-12-29T20:21:17.548Z,94.88
2022-12-29T20:24:22.344Z,96.61
2022-12-29T20:27:30.030Z,95.09
2022-12-29T20:30:34.921Z,96.39
2022-12-29T20:33:39.711Z,95.79
2022-12-29T20:36:46.963Z,97.85
2022-12-29T20:39:52.077Z,97.91
2022-12-29T20:42:59.633Z,98.51
2022-12-29T20:46:04.681Z,98.94
2022-12-29T20:49:09.806Z,99.43
2022-12-29T20:52:14.689Z,100.00
2022-12-29T20:55:19.589Z,100.00
2022-12-29T20:58:27.295Z,100.00
2022-12-29T21:01:32.839Z,100.00
2022-12-29T21:05:05.511Z,100.00
2022-12-29T21:08:02.981Z,100.00
2022-12-29T21:11:08.880Z,100.00
2022-12-29T21:14:16.241Z,100.00
2022-12-29T21:17:21.015Z,100.00
2022-12-29T21:20:30.358Z,100.00
2022-12-29T21:23:35.653Z,100.00
2022-12-29T21:26:40.626Z,100.00
2022-12-29T21:29:48.284Z,100.00
2022-12-29T21:32:53.111Z,100.00
2022-12-29T21:35:57.838Z,100.00
2022-12-29T21:39:03.770Z,100.00
2022-12-29T21:42:08.829Z,100.00
2022-12-29T21:45:30.324Z,100.00
2022-12-29T21:48:35.375Z,100.00
2022-12-29T21:51:56.020Z,100.00
2022-12-29T21:55:05.190Z,100.00
2022-12-29T21:58:23.574Z,100.00
2022-12-29T22:01:45.765Z,100.00
2022-12-29T22:05:04.560Z,100.00
2022-12-29T22:08:22.122Z,100.00
2022-12-29T22:11:39.805Z,100.00
2022-12-29T22:14:44.568Z,100.00
2022-12-29T22:17:53.629Z,100.00
2022-12-29T22:20:58.526Z,100.00
2022-12-29T22:24:03.421Z,100.00
2022-12-29T22:27:08.543Z,100.00
2022-12-29T22:30:14.216Z,100.00
2022-12-29T22:33:21.611Z,100.00
2022-12-29T22:36:27.590Z,100.00
2022-12-29T22:39:32.361Z,100.00
2022-12-29T22:42:37.183Z,100.00
2022-12-29T22:45:42.186Z,100.00
2022-12-29T22:48:49.714Z,99.89
2022-12-29T22:51:54.670Z,100.00
2022-12-29T22:55:06.160Z,100.00
2022-12-29T22:58:11.699Z,100.00
2022-12-29T23:01:19.300Z,100.00
2022-12-29T23:05:01.536Z,100.00
2022-12-29T23:07:51.597Z,100.00
2022-12-29T23:10:56.688Z,99.70
2022-12-29T23:14:03.195Z,97.85
2022-12-29T23:17:07.926Z,99.20
2022-12-29T23:20:15.476Z,99.17
2022-12-29T23:23:48.478Z,100.00
2022-12-29T23:26:54.161Z,100.00
2022-12-29T23:29:58.898Z,100.00
2022-12-29T23:33:03.868Z,100.00
2022-12-29T23:36:11.738Z,100.00
2022-12-29T23:39:21.641Z,100.00
2022-12-29T23:42:26.559Z,99.79
2022-12-29T23:45:31.636Z,100.00
2022-12-29T23:48:36.481Z,100.00
2022-12-29T23:51:44.041Z,100.00
2022-12-29T23:54:49.727Z,100.00
2022-12-29T23:57:55.481Z,100.00
